Time;durP1;ratioP1;P1;durP2;ratioP2;P2;SDS_P1;SDS_P2;PMS_P1;PMS_P2;Temp;Humidity;BMP_temperature;BMP_pressure;BME280_temperature;BME280_humidity;BME280_pressure;Samples;Min_cycle;Max_cycle;Signal;HPM_P1;HPM_P2
2020/12/04 00:00:23;;;;;;;43.15;23.35;;;2.40;99.90;;;;;;5031941;28;20224;-46
2020/12/04 00:02:50;;;;;;;41.90;24.02;;;2.20;99.90;;;;;;5014219;28;20346;-45
2020/12/04 00:05:17;;;;;;;37.03;22.08;;;2.20;99.90;;;;;;5032072;28;20636;-46
2020/12/04 00:07:43;;;;;;;41.10;22.80;;;2.20;99.90;;;;;;5032348;28;20254;-46
2020/12/04 00:10:10;;;;;;;44.08;22.70;;;2.10;99.90;;;;;;5031997;28;20270;-46
2020/12/04 00:12:40;;;;;;;45.20;24.02;;;2.20;99.90;;;;;;5031710;28;20188;-47
2020/12/04 00:15:07;;;;;;;37.50;21.58;;;2.30;99.90;;;;;;5031725;28;20209;-46
2020/12/04 00:17:33;;;;;;;37.00;22.45;;;2.40;99.90;;;;;;5032066;28;20193;-47
2020/12/04 00:20:00;;;;;;;41.58;23.40;;;2.30;99.90;;;;;;5032252;28;20299;-48
2020/12/04 00:22:26;;;;;;;40.67;24.25;;;2.00;99.90;;;;;;5031794;28;20222;-46
2020/12/04 00:24:53;;;;;;;38.00;22.65;;;2.30;99.90;;;;;;5032199;28;20215;-47
2020/12/04 00:27:19;;;;;;;44.65;26.52;;;2.20;99.90;;;;;;5031955;28;20204;-47
2020/12/04 00:29:47;;;;;;;42.22;24.50;;;2.30;99.90;;;;;;5031881;28;20315;-47
2020/12/04 00:32:13;;;;;;;42.28;23.15;;;2.00;99.90;;;;;;5032236;28;20197;-47
2020/12/04 00:34:40;;;;;;;43.75;24.20;;;2.00;99.90;;;;;;5031329;28;20588;-47
2020/12/04 00:37:06;;;;;;;34.33;22.85;;;2.10;99.90;;;;;;5032275;28;20604;-47
2020/12/04 00:39:33;;;;;;;34.60;21.60;;;1.90;99.90;;;;;;5033593;28;20231;-47
2020/12/04 00:42:00;;;;;;;40.17;22.15;;;1.90;99.90;;;;;;5033250;28;20192;-47
2020/12/04 00:44:27;;;;;;;36.15;21.90;;;2.20;99.90;;;;;;5032116;28;20204;-48
2020/12/04 00:46:54;;;;;;;39.83;22.23;;;2.00;99.90;;;;;;5031463;28;20208;-47
2020/12/04 00:49:22;;;;;;;32.92;22.65;;;2.10;99.90;;;;;;5013684;28;20235;-47
2020/12/04 00:51:52;;;;;;;36.75;22.00;;;1.90;99.90;;;;;;5031462;28;20204;-47
2020/12/04 00:54:18;;;;;;;34.17;22.35;;;2.10;99.90;;;;;;5013288;28;20204;-47
2020/12/04 00:56:45;;;;;;;34.15;21.45;;;1.90;99.90;;;;;;5013433;28;20449;-48
2020/12/04 00:59:25;;;;;;;36.00;22.67;;;2.00;99.90;;;;;;5031226;28;20193;-48
2020/12/04 01:01:52;;;;;;;33.47;20.95;;;2.00;99.90;;;;;;5030979;28;20212;-47
2020/12/04 01:04:20;;;;;;;36.40;20.60;;;2.00;99.90;;;;;;5030883;28;20228;-47
2020/12/04 01:06:46;;;;;;;33.83;21.75;;;2.00;99.90;;;;;;5031202;28;20188;-47
2020/12/04 01:09:14;;;;;;;40.35;22.75;;;2.10;99.90;;;;;;5031114;28;20214;-48
2020/12/04 01:11:40;;;;;;;38.75;20.65;;;2.10;99.90;;;;;;5030962;28;20212;-48
2020/12/04 01:14:07;;;;;;;37.30;21.67;;;1.90;99.90;;;;;;5031178;28;20201;-47
2020/12/04 01:16:33;;;;;;;36.70;20.27;;;2.00;99.90;;;;;;5031352;28;20762;-47
2020/12/04 01:19:00;;;;;;;34.60;21.10;;;1.90;99.90;;;;;;5031165;28;20189;-47
2020/12/04 01:21:27;;;;;;;33.30;21.33;;;1.90;99.90;;;;;;5031145;28;20212;-47
2020/12/04 01:23:54;;;;;;;29.13;19.00;;;1.70;99.90;;;;;;5030828;28;20184;-47
2020/12/04 01:26:21;;;;;;;36.53;20.15;;;1.90;99.90;;;;;;5013115;28;20644;-48
2020/12/04 01:28:47;;;;;;;30.20;20.48;;;2.00;99.90;;;;;;5030904;28;20228;-48
2020/12/04 01:31:14;;;;;;;37.60;21.67;;;2.10;99.90;;;;;;5030705;28;20208;-48
2020/12/04 01:33:40;;;;;;;40.50;21.95;;;1.10;99.90;;;;;;5030513;28;20246;-47
2020/12/04 01:36:08;;;;;;;31.33;20.45;;;2.00;99.90;;;;;;5030876;28;20395;-47
2020/12/04 01:38:35;;;;;;;35.70;20.98;;;1.80;99.90;;;;;;5030768;28;20189;-47
2020/12/04 01:41:02;;;;;;;32.38;20.25;;;1.90;99.90;;;;;;5030764;28;20251;-47
2020/12/04 01:43:29;;;;;;;34.78;19.75;;;1.20;99.90;;;;;;5030403;28;20208;-47
2020/12/04 01:45:57;;;;;;;31.58;19.98;;;1.80;99.90;;;;;;5030819;28;20645;-47
2020/12/04 01:48:24;;;;;;;34.08;20.10;;;1.70;99.90;;;;;;5030715;28;20189;-47
2020/12/04 01:50:51;;;;;;;34.83;21.40;;;2.00;99.90;;;;;;5030602;28;20240;-48
2020/12/04 01:53:19;;;;;;;31.63;19.85;;;1.80;99.90;;;;;;5030251;28;20560;-48
2020/12/04 01:55:46;;;;;;;37.38;21.08;;;1.10;99.90;;;;;;5030593;28;20236;-48
2020/12/04 01:58:16;;;;;;;32.08;20.20;;;1.80;99.90;;;;;;5012796;28;20267;-47
2020/12/04 02:00:43;;;;;;;33.38;20.90;;;1.90;99.90;;;;;;5030592;28;20227;-47
2020/12/04 02:03:11;;;;;;;33.38;20.80;;;2.20;99.90;;;;;;5030914;28;20266;-47
2020/12/04 02:05:45;;;;;;;37.08;22.63;;;1.70;99.90;;;;;;5030593;28;20247;-47
2020/12/04 02:08:20;;;;;;;39.60;22.27;;;1.90;99.90;;;;;;5030660;28;20192;-46
2020/12/04 02:10:54;;;;;;;40.35;23.95;;;1.80;99.90;;;;;;5030447;28;20277;-46
2020/12/04 02:13:22;;;;;;;33.13;21.98;;;1.80;99.90;;;;;;5032691;28;20291;-47
2020/12/04 02:15:49;;;;;;;39.28;23.73;;;1.60;99.90;;;;;;5034323;28;20291;-47
2020/12/04 02:18:17;;;;;;;38.33;22.95;;;1.80;99.90;;;;;;5034260;28;20224;-47
2020/12/04 02:20:44;;;;;;;38.58;22.65;;;1.70;99.90;;;;;;5034253;28;20730;-46
2020/12/04 02:23:12;;;;;;;35.70;22.70;;;1.50;99.90;;;;;;5033789;28;20260;-47
2020/12/04 02:25:39;;;;;;;36.63;23.70;;;1.60;99.90;;;;;;5034454;28;20201;-46
2020/12/04 02:28:05;;;;;;;32.83;21.35;;;1.30;99.90;;;;;;5034309;28;20196;-47
2020/12/04 02:30:34;;;;;;;36.15;22.23;;;1.80;99.90;;;;;;5034105;28;20685;-47
2020/12/04 02:33:01;;;;;;;37.63;23.38;;;1.60;99.90;;;;;;5033602;28;20204;-47
2020/12/04 02:35:28;;;;;;;37.22;23.40;;;1.90;99.90;;;;;;5034150;28;20275;-47
2020/12/04 02:37:55;;;;;;;37.60;24.48;;;1.70;99.90;;;;;;5034003;28;20194;-45
2020/12/04 02:40:22;;;;;;;36.80;23.42;;;1.50;99.90;;;;;;5034966;28;20216;-46
2020/12/04 02:42:50;;;;;;;37.80;23.95;;;1.50;99.90;;;;;;5034741;28;20220;-46
2020/12/04 02:45:16;;;;;;;37.42;24.02;;;1.70;99.90;;;;;;5034935;28;20206;-47
2020/12/04 02:47:43;;;;;;;41.55;24.85;;;1.50;99.90;;;;;;5034199;28;20562;-47
2020/12/04 02:50:09;;;;;;;40.25;24.35;;;1.80;99.90;;;;;;5033646;28;20220;-47
2020/12/04 02:52:36;;;;;;;42.75;24.58;;;1.10;99.90;;;;;;5015488;28;20243;-47
2020/12/04 02:55:03;;;;;;;39.60;23.67;;;1.60;99.90;;;;;;5015782;28;20642;-46
2020/12/04 02:57:30;;;;;;;36.55;25.05;;;1.50;99.90;;;;;;5033570;28;20728;-47
2020/12/04 02:59:56;;;;;;;40.60;26.08;;;1.80;99.90;;;;;;5056391;22;20274;-49
2020/12/04 03:02:23;;;;;;;43.25;23.48;;;1.90;99.90;;;;;;5015651;28;20619;-49
2020/12/04 03:04:49;;;;;;;38.97;23.70;;;1.70;99.90;;;;;;5033997;28;20254;-49
2020/12/04 03:07:16;;;;;;;40.38;23.58;;;1.50;99.90;;;;;;5034122;28;20549;-48
2020/12/04 03:09:42;;;;;;;38.17;24.42;;;1.80;99.90;;;;;;5033876;28;20192;-49
2020/12/04 03:12:09;;;;;;;38.30;24.20;;;1.80;99.90;;;;;;5033689;28;20631;-48
2020/12/04 03:14:36;;;;;;;36.55;23.83;;;1.60;99.90;;;;;;5033422;28;20194;-48
2020/12/04 03:17:03;;;;;;;38.55;23.30;;;1.60;99.90;;;;;;5033772;28;20290;-49
2020/12/04 03:19:29;;;;;;;34.40;22.85;;;1.20;99.90;;;;;;5033716;28;20614;-49
2020/12/04 03:21:55;;;;;;;35.08;23.45;;;1.60;99.90;;;;;;5033619;28;20255;-49
2020/12/04 03:24:22;;;;;;;36.20;23.23;;;1.60;99.90;;;;;;5032224;28;20193;-48
2020/12/04 03:26:48;;;;;;;39.97;24.13;;;1.50;99.90;;;;;;5033790;28;20193;-50
2020/12/04 03:29:16;;;;;;;34.08;22.58;;;1.80;99.90;;;;;;5033625;28;20653;-49
2020/12/04 03:31:42;;;;;;;37.20;21.95;;;1.80;99.90;;;;;;5033684;28;20705;-50
2020/12/04 03:34:09;;;;;;;34.80;22.42;;;1.80;99.90;;;;;;5033297;28;20274;-50
2020/12/04 03:36:35;;;;;;;37.30;23.38;;;1.60;99.90;;;;;;5033341;28;20693;-49
2020/12/04 03:39:02;;;;;;;34.05;21.92;;;1.70;99.90;;;;;;5032283;28;20201;-49
2020/12/04 03:41:29;;;;;;;34.03;22.33;;;1.90;99.90;;;;;;5032284;28;20281;-50
2020/12/04 03:43:55;;;;;;;32.22;22.45;;;1.20;99.90;;;;;;5032854;28;20569;-50
2020/12/04 03:46:22;;;;;;;33.50;22.15;;;1.70;99.90;;;;;;5033611;28;20243;-49
2020/12/04 03:48:49;;;;;;;46.78;24.42;;;1.60;99.90;;;;;;5033359;28;20769;-49
2020/12/04 03:51:15;;;;;;;35.67;22.23;;;1.80;99.90;;;;;;5033377;28;20216;-50
2020/12/04 03:53:42;;;;;;;34.25;20.48;;;1.90;99.90;;;;;;5033193;28;20750;-49
2020/12/04 03:56:09;;;;;;;36.72;23.60;;;1.70;99.90;;;;;;5032944;28;20762;-49
2020/12/04 03:58:35;;;;;;;34.20;21.35;;;1.60;99.90;;;;;;5033180;28;20202;-50
2020/12/04 04:01:03;;;;;;;36.60;24.10;;;1.80;99.90;;;;;;5032997;28;20666;-49
2020/12/04 04:03:30;;;;;;;32.90;22.17;;;1.10;99.90;;;;;;5032595;28;20195;-50
2020/12/04 04:05:57;;;;;;;33.10;22.63;;;1.70;99.90;;;;;;5032782;28;20239;-50
2020/12/04 04:08:23;;;;;;;33.97;21.58;;;1.60;99.90;;;;;;5032932;28;20615;-50
2020/12/04 04:10:50;;;;;;;32.88;21.30;;;1.00;99.90;;;;;;5032408;28;20244;-50
2020/12/04 04:13:16;;;;;;;32.97;22.75;;;1.60;99.90;;;;;;5032356;28;20359;-50
2020/12/04 04:15:43;;;;;;;34.75;21.70;;;2.00;99.90;;;;;;5032371;28;20232;-51
2020/12/04 04:18:09;;;;;;;34.67;22.85;;;1.60;99.90;;;;;;5032492;28;20247;-49
2020/12/04 04:20:37;;;;;;;35.95;22.65;;;2.00;99.90;;;;;;5032534;28;20269;-50
2020/12/04 04:23:03;;;;;;;34.58;21.92;;;1.70;99.90;;;;;;5032544;28;20189;-49
2020/12/04 04:25:30;;;;;;;34.20;23.13;;;2.00;99.90;;;;;;5014745;28;20664;-50
2020/12/04 04:27:56;;;;;;;36.22;22.10;;;1.80;99.90;;;;;;5032410;28;20280;-49
2020/12/04 04:30:23;;;;;;;34.80;22.48;;;1.90;99.90;;;;;;5032041;28;20270;-49
2020/12/04 04:32:49;;;;;;;34.08;21.92;;;2.10;99.90;;;;;;5031885;28;20205;-50
2020/12/04 04:35:16;;;;;;;36.38;24.13;;;1.80;99.90;;;;;;5031805;28;20608;-49
2020/12/04 04:37:44;;;;;;;33.30;21.88;;;2.30;99.90;;;;;;5032311;28;20603;-50
2020/12/04 04:40:11;;;;;;;35.30;23.23;;;1.90;99.90;;;;;;5032014;28;20248;-50
2020/12/04 04:42:37;;;;;;;37.85;23.25;;;2.10;99.90;;;;;;5032010;28;20243;-49
2020/12/04 04:45:04;;;;;;;34.25;23.05;;;2.10;99.90;;;;;;5032288;28;20192;-49
2020/12/04 04:47:33;;;;;;;35.72;22.80;;;2.00;99.90;;;;;;5032325;28;20192;-48
2020/12/04 04:49:59;;;;;;;34.47;24.02;;;2.10;99.90;;;;;;5032450;28;20720;-50
2020/12/04 04:52:27;;;;;;;41.58;23.70;;;2.00;99.90;;;;;;5031757;28;20192;-49
2020/12/04 04:54:55;;;;;;;37.78;23.95;;;1.70;99.90;;;;;;5031933;28;20656;-49
2020/12/04 04:57:24;;;;;;;36.72;22.95;;;2.00;99.90;;;;;;5032222;28;20581;-50
2020/12/04 04:59:53;;;;;;;35.40;23.85;;;1.70;99.90;;;;;;5032111;28;20200;-50
2020/12/04 05:02:19;;;;;;;34.03;21.45;;;1.80;99.90;;;;;;5032053;28;20276;-50
2020/12/04 05:04:55;;;;;;;38.53;22.63;;;1.90;99.90;;;;;;5014340;28;20204;-49
2020/12/04 05:07:29;;;;;;;36.17;22.83;;;2.00;99.90;;;;;;5031961;28;20184;-50
2020/12/04 05:10:10;;;;;;;41.30;22.90;;;2.00;99.90;;;;;;5031262;28;20278;-50
2020/12/04 05:12:37;;;;;;;37.60;23.45;;;1.50;99.90;;;;;;5031608;28;20192;-50
2020/12/04 05:15:19;;;;;;;36.65;24.73;;;1.10;99.90;;;;;;5032226;28;20219;-50
2020/12/04 05:18:06;;;;;;;36.90;22.05;;;1.90;99.90;;;;;;5031577;28;20700;-49
2020/12/04 05:20:37;;;;;;;36.42;23.60;;;1.50;99.90;;;;;;5031556;28;20403;-50
2020/12/04 05:23:04;;;;;;;39.08;23.88;;;1.80;99.90;;;;;;5031312;28;20193;-50
2020/12/04 05:25:35;;;;;;;37.10;23.15;;;1.80;99.90;;;;;;5031247;28;20620;-50
2020/12/04 05:28:13;;;;;;;39.20;24.73;;;1.70;99.90;;;;;;5031135;28;20241;-49
2020/12/04 05:30:41;;;;;;;35.28;22.27;;;1.90;99.90;;;;;;5031295;28;20209;-50
2020/12/04 05:33:09;;;;;;;36.25;23.60;;;1.80;99.90;;;;;;5030998;28;20251;-49
2020/12/04 05:35:36;;;;;;;38.00;24.00;;;1.80;99.90;;;;;;5031511;28;20236;-49
2020/12/04 05:38:07;;;;;;;40.15;24.13;;;2.00;99.90;;;;;;5031329;28;20184;-50
2020/12/04 05:40:35;;;;;;;38.10;24.23;;;1.70;99.90;;;;;;5031369;28;20291;-49
2020/12/04 05:43:02;;;;;;;35.15;22.45;;;1.70;99.90;;;;;;5030609;28;20205;-49
2020/12/04 05:45:29;;;;;;;33.03;22.38;;;1.10;99.90;;;;;;5030871;28;20200;-49
2020/12/04 05:47:56;;;;;;;36.45;22.85;;;1.60;99.90;;;;;;5014919;28;20578;-50
2020/12/04 05:50:22;;;;;;;38.22;22.35;;;1.70;99.90;;;;;;5035157;28;20711;-51
2020/12/04 05:52:50;;;;;;;35.83;23.45;;;1.70;99.90;;;;;;5034628;28;20704;-50
2020/12/04 05:55:17;;;;;;;37.90;22.75;;;1.60;99.90;;;;;;5034793;28;20196;-51
2020/12/04 05:57:47;;;;;;;37.60;24.48;;;2.00;99.90;;;;;;5034700;28;20254;-50
2020/12/04 06:00:15;;;;;;;37.05;22.80;;;2.10;99.90;;;;;;5034673;28;20271;-51
2020/12/04 06:02:42;;;;;;;33.05;23.65;;;1.80;99.90;;;;;;5034602;28;20220;-50
2020/12/04 06:05:10;;;;;;;34.70;23.23;;;1.90;99.90;;;;;;5016888;28;20205;-50
2020/12/04 06:07:38;;;;;;;32.90;23.00;;;2.10;99.90;;;;;;5034406;28;20548;-50
2020/12/04 06:10:06;;;;;;;37.70;23.63;;;1.80;99.90;;;;;;5034745;28;20254;-50
2020/12/04 06:12:32;;;;;;;39.92;24.27;;;2.30;99.90;;;;;;5034154;28;20243;-50
2020/12/04 06:15:20;;;;;;;34.70;22.90;;;2.30;99.90;;;;;;5034745;28;20210;-50
2020/12/04 06:17:47;;;;;;;36.42;24.15;;;1.30;99.90;;;;;;5016358;28;20200;-50
2020/12/04 06:20:17;;;;;;;31.92;21.27;;;2.20;99.90;;;;;;5034398;28;20287;-50
2020/12/04 06:23:09;;;;;;;39.75;24.65;;;2.40;99.90;;;;;;5034024;28;20196;-50
2020/12/04 06:26:03;;;;;;;37.33;23.65;;;2.10;99.90;;;;;;5034114;28;20228;-50
2020/12/04 06:28:32;;;;;;;37.20;25.05;;;2.00;99.90;;;;;;5034107;28;20191;-50
2020/12/04 06:31:05;;;;;;;36.83;23.10;;;2.30;99.90;;;;;;5034022;28;20236;-49
2020/12/04 06:33:46;;;;;;;40.08;25.48;;;2.50;99.90;;;;;;5033789;28;20192;-50
2020/12/04 06:36:34;;;;;;;35.08;23.80;;;2.20;99.90;;;;;;5033811;28;20693;-50
2020/12/04 06:39:02;;;;;;;35.55;22.80;;;2.20;99.90;;;;;;5033773;28;20200;-51
2020/12/04 06:41:32;;;;;;;41.53;23.35;;;2.00;99.90;;;;;;5033668;28;20220;-51
2020/12/04 06:44:00;;;;;;;34.95;22.42;;;2.20;99.90;;;;;;5033604;28;20246;-50
2020/12/04 06:46:36;;;;;;;36.47;23.73;;;2.40;99.90;;;;;;5033554;28;20219;-50
2020/12/04 06:49:09;;;;;;;35.97;24.50;;;1.70;99.90;;;;;;5033538;28;20231;-50
2020/12/04 06:51:36;;;;;;;35.00;21.95;;;2.10;99.90;;;;;;5032900;28;20216;-50
2020/12/04 06:54:03;;;;;;;36.58;23.95;;;2.20;99.90;;;;;;5015245;28;20212;-50
2020/12/04 06:56:30;;;;;;;38.85;25.35;;;2.50;99.90;;;;;;5033313;28;20239;-50
2020/12/04 06:58:56;;;;;;;39.58;23.65;;;2.40;99.90;;;;;;5033283;28;20220;-51
2020/12/04 07:01:23;;;;;;;33.17;22.85;;;2.60;99.90;;;;;;5032984;28;20287;-51
2020/12/04 07:03:55;;;;;;;30.05;20.95;;;2.20;99.90;;;;;;5033178;28;20243;-51
2020/12/04 07:06:22;;;;;;;39.55;23.55;;;2.60;99.90;;;;;;5034819;28;20271;-51
2020/12/04 07:08:56;;;;;;;34.97;22.75;;;2.40;99.90;;;;;;5034190;28;20200;-50
2020/12/04 07:11:24;;;;;;;36.15;23.50;;;2.50;99.90;;;;;;5034381;28;20212;-51
2020/12/04 07:13:51;;;;;;;34.90;22.45;;;2.60;99.90;;;;;;5033388;28;20228;-50
2020/12/04 07:16:18;;;;;;;31.98;21.50;;;2.50;99.90;;;;;;5033028;28;20219;-51
2020/12/04 07:18:49;;;;;;;33.42;23.50;;;2.70;99.90;;;;;;5032733;28;20206;-51
2020/12/04 07:21:17;;;;;;;36.85;23.02;;;2.50;99.90;;;;;;5032825;28;20541;-50
2020/12/04 07:23:44;;;;;;;38.67;24.83;;;2.60;99.90;;;;;;5032309;28;20228;-54
2020/12/04 07:26:16;;;;;;;35.47;22.55;;;2.80;99.90;;;;;;5032687;28;20193;-49
2020/12/04 07:28:45;;;;;;;34.72;21.85;;;2.10;99.90;;;;;;5033033;28;20590;-49
2020/12/04 07:31:17;;;;;;;34.47;22.55;;;2.60;99.90;;;;;;5032900;28;20227;-50
2020/12/04 07:33:51;;;;;;;35.35;23.40;;;2.80;99.90;;;;;;5031803;28;20221;-50
2020/12/04 07:36:18;;;;;;;37.53;23.67;;;2.80;99.90;;;;;;5014446;28;20310;-50
2020/12/04 07:38:53;;;;;;;36.95;23.08;;;2.90;99.90;;;;;;5032207;28;20616;-50
2020/12/04 07:41:36;;;;;;;35.45;23.83;;;2.10;99.90;;;;;;5032082;28;20286;-52
2020/12/04 07:44:06;;;;;;;33.42;22.33;;;2.20;99.90;;;;;;5032089;28;20215;-50
2020/12/04 07:46:33;;;;;;;32.80;22.65;;;2.70;99.90;;;;;;5032205;28;20208;-51
2020/12/04 07:49:02;;;;;;;34.65;22.50;;;2.80;99.90;;;;;;5032619;28;20193;-51
2020/12/04 07:51:31;;;;;;;32.70;21.55;;;3.00;99.90;;;;;;5032928;28;20311;-49
2020/12/04 07:53:59;;;;;;;34.30;21.27;;;2.80;99.90;;;;;;5032197;28;20189;-50
2020/12/04 07:56:27;;;;;;;35.13;23.05;;;2.80;99.90;;;;;;5012008;28;20312;-51
2020/12/04 07:59:00;;;;;;;32.92;22.45;;;2.70;99.90;;;;;;5042578;28;20616;-51
2020/12/04 08:01:27;;;;;;;33.03;21.58;;;3.00;99.90;;;;;;5041115;28;20248;-51
2020/12/04 08:03:55;;;;;;;29.40;21.33;;;3.00;99.90;;;;;;5031885;28;20197;-51
2020/12/04 08:06:26;;;;;;;34.78;22.52;;;3.10;99.90;;;;;;5047753;28;20204;-50
2020/12/04 08:09:08;;;;;;;35.35;23.00;;;3.20;99.90;;;;;;5052000;28;20629;-51
2020/12/04 08:11:39;;;;;;;32.38;21.27;;;3.20;99.90;;;;;;5050014;28;20212;-51
2020/12/04 08:14:06;;;;;;;31.40;22.27;;;3.30;99.90;;;;;;5034351;28;20263;-50
2020/12/04 08:16:33;;;;;;;34.00;22.90;;;3.10;99.90;;;;;;5029694;28;20220;-51
2020/12/04 08:19:10;;;;;;;31.52;21.15;;;3.00;99.90;;;;;;5030668;28;20277;-51
2020/12/04 08:21:54;;;;;;;35.35;23.15;;;3.30;99.90;;;;;;5031694;28;20365;-51
2020/12/04 08:24:24;;;;;;;35.35;22.45;;;3.20;99.90;;;;;;5013799;28;20231;-51
2020/12/04 08:27:11;;;;;;;30.20;21.13;;;3.20;99.90;;;;;;5031497;28;20243;-50
2020/12/04 08:29:41;;;;;;;33.10;20.02;;;3.60;99.90;;;;;;5032147;28;20207;-51
2020/12/04 08:32:11;;;;;;;36.00;24.30;;;3.50;99.90;;;;;;5029314;28;20583;-51
2020/12/04 08:34:38;;;;;;;34.15;21.55;;;4.10;99.90;;;;;;5031381;28;20196;-51
2020/12/04 08:37:08;;;;;;;34.03;21.60;;;3.60;99.90;;;;;;5031113;28;20303;-50
2020/12/04 08:39:41;;;;;;;35.05;20.17;;;2.90;99.90;;;;;;5031538;28;20209;-51
2020/12/04 08:42:15;;;;;;;33.45;20.90;;;3.50;99.90;;;;;;5031278;28;20298;-51
2020/12/04 08:44:42;;;;;;;32.85;22.45;;;3.80;99.90;;;;;;5031953;28;20222;-51
2020/12/04 08:47:09;;;;;;;36.88;21.08;;;3.70;99.90;;;;;;5031627;28;20197;-50
2020/12/04 08:49:36;;;;;;;33.20;21.35;;;3.80;99.90;;;;;;5031258;28;20192;-50
2020/12/04 08:52:03;;;;;;;28.33;21.17;;;3.80;99.90;;;;;;5031349;28;20787;-51
2020/12/04 08:54:30;;;;;;;32.17;19.92;;;3.80;99.90;;;;;;5031267;28;20573;-50
2020/12/04 08:56:57;;;;;;;28.05;20.05;;;4.00;99.90;;;;;;5031413;28;20224;-51
2020/12/04 08:59:24;;;;;;;31.30;21.02;;;3.60;99.90;;;;;;5031487;28;20266;-50
2020/12/04 09:01:52;;;;;;;30.25;20.33;;;4.10;99.90;;;;;;5031605;28;20700;-49
2020/12/04 09:04:19;;;;;;;28.35;20.52;;;4.30;99.90;;;;;;5030545;28;20262;-49
2020/12/04 09:06:46;;;;;;;28.33;20.33;;;3.90;99.90;;;;;;5031064;28;20200;-49
2020/12/04 09:09:13;;;;;;;29.05;19.33;;;4.60;99.90;;;;;;5031505;28;20204;-50
2020/12/04 09:11:40;;;;;;;27.00;19.88;;;4.60;99.90;;;;;;5031267;28;20701;-52
2020/12/04 09:14:07;;;;;;;33.35;19.52;;;4.60;99.90;;;;;;5030735;28;20624;-50
2020/12/04 09:16:34;;;;;;;29.00;21.38;;;5.20;99.90;;;;;;5031089;28;20212;-52
2020/12/04 09:19:00;;;;;;;26.38;18.67;;;4.70;99.90;;;;;;5031183;28;20193;-49
2020/12/04 09:21:27;;;;;;;28.77;19.35;;;5.00;99.90;;;;;;5030675;28;20294;-49
2020/12/04 09:23:54;;;;;;;28.98;18.95;;;4.80;99.90;;;;;;5013221;28;20616;-49
2020/12/04 09:26:20;;;;;;;27.90;19.52;;;4.90;99.90;;;;;;5031257;28;20224;-50
2020/12/04 09:28:47;;;;;;;27.88;20.05;;;4.80;99.90;;;;;;5013225;28;20204;-50
2020/12/04 09:31:14;;;;;;;30.38;20.67;;;4.80;99.90;;;;;;5030851;28;20224;-49
2020/12/04 09:33:40;;;;;;;28.73;18.67;;;4.50;99.90;;;;;;5030651;28;20237;-49
2020/12/04 09:36:07;;;;;;;31.70;20.95;;;4.90;99.90;;;;;;5032479;28;20231;-48
2020/12/04 09:38:34;;;;;;;30.02;20.30;;;4.50;99.90;;;;;;5040683;28;20208;-49
2020/12/04 09:41:00;;;;;;;33.03;20.10;;;4.60;99.90;;;;;;5038791;28;20232;-49
2020/12/04 09:43:27;;;;;;;33.00;19.48;;;5.20;99.90;;;;;;5030631;28;20208;-49
2020/12/04 09:45:53;;;;;;;36.72;20.08;;;4.80;99.90;;;;;;5046714;28;20203;-48
2020/12/04 09:48:21;;;;;;;27.45;18.85;;;4.90;99.90;;;;;;5051065;28;20490;-49
2020/12/04 09:50:47;;;;;;;28.25;19.98;;;4.60;99.90;;;;;;5050693;28;20223;-50
2020/12/04 09:53:14;;;;;;;24.73;18.38;;;4.90;99.90;;;;;;5044464;28;20622;-49
2020/12/04 09:55:40;;;;;;;32.28;20.70;;;4.90;99.90;;;;;;5030362;28;20346;-50
2020/12/04 09:58:08;;;;;;;28.50;19.50;;;4.80;99.90;;;;;;5012897;28;20232;-50
2020/12/04 10:00:35;;;;;;;26.85;19.30;;;4.90;99.90;;;;;;5029615;28;20719;-49
2020/12/04 10:03:02;;;;;;;25.98;19.13;;;5.00;99.90;;;;;;5029825;28;20279;-48
2020/12/04 10:05:29;;;;;;;27.38;20.02;;;4.90;99.90;;;;;;5030998;28;20200;-50
2020/12/04 10:07:56;;;;;;;27.95;19.17;;;5.20;99.90;;;;;;5031114;28;20281;-48
2020/12/04 10:10:23;;;;;;;24.88;17.73;;;4.90;99.90;;;;;;5012604;28;20278;-50
2020/12/04 10:12:50;;;;;;;24.50;19.40;;;5.10;99.90;;;;;;5030312;28;20502;-49
2020/12/04 10:15:17;;;;;;;28.20;19.13;;;5.10;99.90;;;;;;5030810;28;20315;-49
2020/12/04 10:17:43;;;;;;;30.35;20.00;;;5.30;99.90;;;;;;5031090;28;20297;-51
2020/12/04 10:20:10;;;;;;;29.00;18.27;;;5.00;99.90;;;;;;5030832;28;20220;-50
2020/12/04 10:22:37;;;;;;;26.85;18.33;;;5.10;99.90;;;;;;5018858;28;20201;-49
2020/12/04 10:25:04;;;;;;;25.17;17.40;;;5.20;99.90;;;;;;5011142;28;20208;-49
2020/12/04 10:27:30;;;;;;;23.13;19.17;;;5.30;99.90;;;;;;5010875;28;20618;-49
2020/12/04 10:29:57;;;;;;;25.75;18.60;;;5.50;99.90;;;;;;5011075;28;20232;-50
2020/12/04 10:32:23;;;;;;;25.20;18.85;;;5.50;99.90;;;;;;5010821;28;20193;-49
2020/12/04 10:34:50;;;;;;;24.90;16.65;;;5.50;99.90;;;;;;5013588;28;20271;-50
2020/12/04 10:37:17;;;;;;;23.33;16.95;;;5.70;99.90;;;;;;5014403;28;20362;-49
2020/12/04 10:39:44;;;;;;;25.08;17.48;;;5.80;99.90;;;;;;5014143;28;20197;-49
2020/12/04 10:42:11;;;;;;;23.23;17.33;;;5.70;99.90;;;;;;5014029;28;20221;-50
2020/12/04 10:44:37;;;;;;;23.13;16.98;;;5.40;99.90;;;;;;5029552;28;20196;-49
2020/12/04 10:47:04;;;;;;;25.63;18.95;;;5.60;99.90;;;;;;5053411;28;20196;-49
2020/12/04 10:49:30;;;;;;;24.90;17.73;;;5.40;99.90;;;;;;5053608;28;20200;-49
2020/12/04 10:51:58;;;;;;;24.52;17.50;;;5.60;99.90;;;;;;5053422;28;20216;-48
2020/12/04 10:54:24;;;;;;;24.77;18.10;;;5.80;99.90;;;;;;5053581;28;20188;-49
2020/12/04 10:56:55;;;;;;;25.63;16.83;;;5.10;99.90;;;;;;5053226;28;20216;-49
2020/12/04 10:59:23;;;;;;;24.73;17.45;;;5.70;99.90;;;;;;5053400;28;20208;-49
2020/12/04 11:01:55;;;;;;;24.90;17.02;;;6.00;99.90;;;;;;5053060;28;20231;-49
2020/12/04 11:07:06;;;;;;;22.30;16.60;;;6.00;99.90;;;;;;5046465;28;20527;-49
2020/12/04 11:09:32;;;;;;;22.05;16.98;;;5.90;99.90;;;;;;5032800;28;20205;-49
2020/12/04 11:12:01;;;;;;;27.83;18.33;;;6.00;99.90;;;;;;5032945;28;20323;-48
2020/12/04 11:14:28;;;;;;;26.35;19.30;;;6.00;99.90;;;;;;5032579;28;20827;-49
2020/12/04 11:16:54;;;;;;;26.98;20.02;;;6.00;99.90;;;;;;5032865;28;20213;-49
2020/12/04 11:19:22;;;;;;;24.40;18.02;;;6.20;99.90;;;;;;5015129;28;20248;-49
2020/12/04 11:21:48;;;;;;;23.77;17.80;;;6.20;99.90;;;;;;5033277;28;20212;-49
2020/12/04 11:24:15;;;;;;;22.75;18.15;;;6.30;99.90;;;;;;5032116;28;20201;-50
2020/12/04 11:26:42;;;;;;;24.55;17.30;;;6.40;99.90;;;;;;5032284;28;20196;-49
2020/12/04 11:29:09;;;;;;;22.90;17.63;;;6.10;99.90;;;;;;5033009;28;20189;-50
2020/12/04 11:31:35;;;;;;;26.27;18.23;;;5.90;99.90;;;;;;5032600;28;20270;-50
2020/12/04 11:34:02;;;;;;;23.38;17.55;;;6.80;99.90;;;;;;5032272;28;20284;-50
2020/12/04 11:36:33;;;;;;;22.63;16.50;;;6.30;99.90;;;;;;5031821;28;20618;-59
2020/12/04 11:39:00;;;;;;;24.35;17.70;;;6.40;99.90;;;;;;5014773;28;20287;-49
2020/12/04 11:41:29;;;;;;;25.75;17.90;;;6.20;99.90;;;;;;5032361;28;20216;-50
2020/12/04 11:43:56;;;;;;;23.90;18.40;;;6.40;99.90;;;;;;5016395;28;20658;-48
2020/12/04 11:46:23;;;;;;;19.73;15.75;;;6.40;99.90;;;;;;5051533;28;20203;-50
2020/12/04 11:48:50;;;;;;;26.13;16.45;;;6.30;99.90;;;;;;5053301;28;20196;-50
2020/12/04 11:51:16;;;;;;;22.70;17.80;;;6.50;99.90;;;;;;5051755;28;20238;-50
2020/12/04 11:53:43;;;;;;;21.85;17.38;;;6.60;99.90;;;;;;5051556;28;20242;-50
2020/12/04 11:56:10;;;;;;;23.92;17.05;;;6.50;99.90;;;;;;5052233;28;20243;-50
2020/12/04 11:58:36;;;;;;;21.25;16.60;;;6.60;99.90;;;;;;5046835;28;20189;-50
2020/12/04 12:01:03;;;;;;;22.90;17.05;;;6.60;99.90;;;;;;5031646;28;20301;-50
2020/12/04 12:03:30;;;;;;;24.52;18.45;;;6.60;99.90;;;;;;5031822;28;20201;-49
2020/12/04 12:05:57;;;;;;;23.67;16.33;;;6.60;99.90;;;;;;5032188;28;20553;-50
2020/12/04 12:08:24;;;;;;;20.20;16.38;;;6.50;99.90;;;;;;5031600;28;20208;-50
2020/12/04 12:10:50;;;;;;;23.58;17.90;;;6.70;99.90;;;;;;5013830;28;20212;-50
2020/12/04 12:13:17;;;;;;;24.05;18.48;;;6.50;99.90;;;;;;5031355;28;20196;-49
2020/12/04 12:15:43;;;;;;;23.33;17.10;;;6.50;99.90;;;;;;5031646;28;20283;-49
2020/12/04 12:18:10;;;;;;;20.60;16.83;;;6.60;99.90;;;;;;5031092;28;20228;-49
2020/12/04 12:20:37;;;;;;;24.65;17.73;;;6.40;99.90;;;;;;5030787;28;20235;-49
2020/12/04 12:23:04;;;;;;;25.05;17.75;;;7.00;99.90;;;;;;5030999;28;20209;-48
2020/12/04 12:25:31;;;;;;;25.10;17.77;;;6.60;99.90;;;;;;5031364;28;20204;-49
2020/12/04 12:27:57;;;;;;;23.08;17.40;;;6.50;99.90;;;;;;5031806;28;20244;-49
2020/12/04 12:30:24;;;;;;;24.08;16.20;;;6.60;99.90;;;;;;5013410;28;20216;-49
2020/12/04 12:32:50;;;;;;;24.25;17.58;;;6.60;99.90;;;;;;5030881;28;20189;-50
2020/12/04 12:35:20;;;;;;;24.33;17.20;;;6.60;99.90;;;;;;5031078;28;20674;-49
2020/12/04 12:37:48;;;;;;;20.30;17.02;;;6.80;99.90;;;;;;5030803;28;20582;-50
2020/12/04 12:40:15;;;;;;;23.65;16.60;;;6.60;99.90;;;;;;5030934;28;20305;-50
2020/12/04 12:42:42;;;;;;;23.42;17.15;;;6.60;99.90;;;;;;5031013;28;20252;-49